createdAt,value
2022-08-25T00:00:17.865Z,53.11
2022-08-25T00:02:55.648Z,53.27
2022-08-25T00:05:29.465Z,53.44
2022-08-25T00:08:00.878Z,53.77
2022-08-25T00:10:28.595Z,53.86
2022-08-25T00:12:55.854Z,53.91
2022-08-25T00:15:23.666Z,53.92
2022-08-25T00:17:51.556Z,53.82
2022-08-25T00:20:19.460Z,54.02
2022-08-25T00:22:46.828Z,53.97
2022-08-25T00:25:14.083Z,53.99
2022-08-25T00:27:41.573Z,54.12
2022-08-25T00:30:10.147Z,54.05
2022-08-25T00:32:40.366Z,54.06
2022-08-25T00:39:10.195Z,54.05
2022-08-25T00:41:40.356Z,54.01
2022-08-25T00:44:11.265Z,53.85
2022-08-25T00:46:47.715Z,53.87
2022-08-25T00:49:35.509Z,53.96
2022-08-25T00:56:03.708Z,54.15
2022-08-25T00:58:34.580Z,54.11
2022-08-25T01:05:11.816Z,54.15
2022-08-25T01:11:49.182Z,54.53
2022-08-25T01:14:20.314Z,54.40
2022-08-25T01:21:18.532Z,54.98
2022-08-25T01:23:47.400Z,55.01
2022-08-25T01:26:30.752Z,54.97
2022-08-25T01:29:49.900Z,54.72
2022-08-25T01:32:17.208Z,54.78
2022-08-25T01:38:44.401Z,54.84
2022-08-25T01:41:11.825Z,54.76
2022-08-25T01:43:39.454Z,54.75
2022-08-25T01:46:06.768Z,54.76
2022-08-25T01:53:11.743Z,54.90
2022-08-25T01:55:39.121Z,55.17
2022-08-25T01:58:06.740Z,55.07
2022-08-25T02:00:34.044Z,55.01
2022-08-25T02:03:01.244Z,55.04
2022-08-25T02:05:29.741Z,55.18
2022-08-25T02:07:59.970Z,55.09
2022-08-25T02:10:27.189Z,55.26
2022-08-25T02:17:05.612Z,55.18
2022-08-25T02:19:33.592Z,55.15
2022-08-25T02:22:01.920Z,55.12
2022-08-25T02:24:29.597Z,55.31
2022-08-25T02:27:43.838Z,55.25
2022-08-25T02:34:38.503Z,55.51
2022-08-25T02:37:05.743Z,55.55
2022-08-25T02:39:32.910Z,55.65
2022-08-25T02:45:59.751Z,55.59
2022-08-25T02:48:27.102Z,55.66
2022-08-25T02:55:07.337Z,55.85
2022-08-25T02:57:34.835Z,55.90
2022-08-25T03:04:24.111Z,55.83
2022-08-25T03:06:51.436Z,56.02
2022-08-25T03:09:18.722Z,56.00
2022-08-25T03:19:55.629Z,56.22
2022-08-25T03:22:22.837Z,56.31
2022-08-25T03:24:50.080Z,55.99
2022-08-25T03:31:27.358Z,56.26
2022-08-25T03:33:55.574Z,56.09
2022-08-25T03:36:23.934Z,56.04
2022-08-25T03:38:52.314Z,56.26
2022-08-25T03:41:31.676Z,56.29
2022-08-25T03:44:01.383Z,56.52
2022-08-25T03:46:33.863Z,56.32
2022-08-25T03:49:04.036Z,56.19
2022-08-25T03:51:38.354Z,56.44
2022-08-25T03:54:07.381Z,56.15
2022-08-25T03:56:34.735Z,56.38
2022-08-25T03:59:02.268Z,56.14
2022-08-25T04:09:39.356Z,56.58
2022-08-25T04:12:06.915Z,56.79
2022-08-25T04:14:34.391Z,56.75
2022-08-25T04:17:04.309Z,56.59
2022-08-25T04:19:31.602Z,56.80
2022-08-25T04:21:58.838Z,57.02
2022-08-25T04:24:26.244Z,56.68
2022-08-25T04:26:53.940Z,56.73
2022-08-25T04:29:25.331Z,56.58
2022-08-25T04:31:55.212Z,56.44
2022-08-25T04:34:30.507Z,56.82
2022-08-25T04:37:05.055Z,56.59
2022-08-25T04:39:32.870Z,56.58
2022-08-25T04:46:20.171Z,56.81
2022-08-25T04:48:50.921Z,56.82
2022-08-25T04:55:18.052Z,56.99
2022-08-25T04:57:45.340Z,56.96
2022-08-25T05:00:13.556Z,57.00
2022-08-25T05:02:41.007Z,56.96
2022-08-25T05:09:19.886Z,57.55
2022-08-25T05:11:49.438Z,57.65
2022-08-25T05:14:16.807Z,57.37
2022-08-25T05:16:44.362Z,57.47
2022-08-25T05:19:11.737Z,57.34
2022-08-25T05:21:39.035Z,57.52
2022-08-25T05:32:06.697Z,57.69
2022-08-25T05:34:33.985Z,57.37
2022-08-25T05:41:18.994Z,57.95
2022-08-25T05:43:49.554Z,57.88
2022-08-25T05:46:19.459Z,58.19
2022-08-25T05:48:47.035Z,58.08
2022-08-25T05:55:24.056Z,58.02
2022-08-25T05:57:51.290Z,57.99
2022-08-25T06:00:18.889Z,57.70
2022-08-25T06:02:46.188Z,57.74
2022-08-25T06:05:23.455Z,57.66
2022-08-25T06:07:53.041Z,57.59
2022-08-25T06:10:20.710Z,57.84
2022-08-25T06:12:49.549Z,57.81
2022-08-25T06:15:21.880Z,57.80
2022-08-25T06:17:50.848Z,57.99
2022-08-25T06:21:12.030Z,57.75
2022-08-25T06:23:40.471Z,58.00
2022-08-25T06:30:11.756Z,57.70
2022-08-25T06:32:41.814Z,57.44
2022-08-25T06:38:50.261Z,57.61
2022-08-25T06:41:17.518Z,57.71
2022-08-25T06:43:49.024Z,57.57
2022-08-25T06:46:35.871Z,57.48
2022-08-25T06:53:06.511Z,57.24
2022-08-25T06:55:34.336Z,57.04
2022-08-25T06:58:02.139Z,57.20
2022-08-25T07:00:33.549Z,56.69
2022-08-25T07:07:10.331Z,56.56
2022-08-25T07:10:52.208Z,56.12
2022-08-25T07:13:19.535Z,56.13
2022-08-25T07:15:46.962Z,55.82
2022-08-25T07:18:14.290Z,55.36
2022-08-25T07:20:41.651Z,55.22
2022-08-25T07:27:18.672Z,54.86
2022-08-25T07:29:45.931Z,54.87
2022-08-25T07:32:13.817Z,54.89
2022-08-25T07:38:50.504Z,54.36
2022-08-25T07:41:17.940Z,53.99
2022-08-25T07:47:25.600Z,53.74
2022-08-25T07:49:52.849Z,53.76
2022-08-25T07:52:20.339Z,53.75
2022-08-25T07:54:47.571Z,54.54
2022-08-25T07:57:15.023Z,53.32
2022-08-25T07:59:43.127Z,52.66
2022-08-25T08:02:17.779Z,53.16
2022-08-25T08:04:51.239Z,53.16
2022-08-25T08:07:36.962Z,52.22
2022-08-25T08:14:31.725Z,52.07
2022-08-25T08:21:19.906Z,51.22
2022-08-25T08:23:48.345Z,51.38
2022-08-25T08:26:17.561Z,51.17
2022-08-25T08:28:45.299Z,51.29
2022-08-25T08:31:25.510Z,51.09
2022-08-25T08:33:56.943Z,51.31
2022-08-25T08:36:25.758Z,50.85
2022-08-25T08:38:53.529Z,50.38
2022-08-25T08:42:07.645Z,50.16
2022-08-25T08:45:06.118Z,49.71
2022-08-25T08:48:32.522Z,49.15
2022-08-25T08:51:09.873Z,49.73
2022-08-25T08:53:54.772Z,49.52
2022-08-25T09:00:25.879Z,48.27
2022-08-25T09:03:07.689Z,47.87
2022-08-25T09:09:46.069Z,47.43
2022-08-25T09:16:45.927Z,47.28
2022-08-25T09:19:28.281Z,45.87
2022-08-25T09:22:35.568Z,45.10
2022-08-25T09:25:29.402Z,45.02
2022-08-25T09:28:20.752Z,44.08
2022-08-25T09:35:02.747Z,44.20
2022-08-25T09:37:30.587Z,43.84
2022-08-25T09:39:59.801Z,44.11
2022-08-25T09:42:49.881Z,42.25
2022-08-25T09:49:16.923Z,41.74
2022-08-25T09:51:44.203Z,42.06
2022-08-25T09:54:14.439Z,42.21
2022-08-25T10:04:40.029Z,40.49
2022-08-25T10:07:29.237Z,42.10
2022-08-25T10:10:03.633Z,41.84
2022-08-25T10:12:36.729Z,42.50
2022-08-25T10:19:22.704Z,39.85
2022-08-25T10:22:20.614Z,40.96
2022-08-25T10:24:49.472Z,41.35
2022-08-25T10:31:32.622Z,37.83
2022-08-25T10:34:25.486Z,38.63
2022-08-25T10:37:20.470Z,37.48
2022-08-25T10:40:07.113Z,35.95
2022-08-25T10:43:07.406Z,34.47
2022-08-25T10:49:49.925Z,34.72
2022-08-25T10:52:31.926Z,34.39
2022-08-25T10:55:06.627Z,34.57
2022-08-25T10:57:58.045Z,33.57
2022-08-25T11:00:33.346Z,33.53
2022-08-25T11:07:25.141Z,33.42
2022-08-25T11:10:45.835Z,32.61
2022-08-25T11:13:43.306Z,30.58
2022-08-25T11:16:28.626Z,30.17
2022-08-25T11:23:29.144Z,29.31
2022-08-25T11:26:08.311Z,29.00
2022-08-25T11:29:02.899Z,28.27
2022-08-25T11:40:11.553Z,26.91
2022-08-25T11:43:28.368Z,27.04
2022-08-25T11:46:27.830Z,27.66
2022-08-25T11:49:33.797Z,28.59
2022-08-25T11:52:03.174Z,29.69
2022-08-25T11:54:44.705Z,30.50
2022-08-25T11:57:24.915Z,31.19
2022-08-25T11:59:54.853Z,31.70
2022-08-25T12:06:33.747Z,33.22
2022-08-25T12:09:01.022Z,34.10
2022-08-25T12:15:42.857Z,34.35
2022-08-25T12:22:09.589Z,34.94
2022-08-25T12:24:50.306Z,35.28
2022-08-25T12:27:55.940Z,35.52
2022-08-25T12:35:13.908Z,35.80
2022-08-25T12:38:03.783Z,36.25
2022-08-25T12:40:36.291Z,36.12
2022-08-25T12:43:37.386Z,35.87
2022-08-25T12:46:23.288Z,36.13
2022-08-25T12:52:39.250Z,35.53
2022-08-25T12:59:20.275Z,34.13
2022-08-25T13:02:51.724Z,33.54
2022-08-25T13:05:48.366Z,33.15
2022-08-25T13:09:15.941Z,32.35
2022-08-25T13:16:07.311Z,31.08
2022-08-25T13:23:27.025Z,30.38
2022-08-25T13:25:58.873Z,30.74
2022-08-25T13:28:32.468Z,29.27
2022-08-25T13:35:52.351Z,28.46
2022-08-25T13:38:20.435Z,28.83
2022-08-25T13:40:48.206Z,28.87
2022-08-25T13:43:16.217Z,29.00
2022-08-25T13:50:22.804Z,29.45
2022-08-25T13:53:05.902Z,29.43
2022-08-25T13:55:59.485Z,30.27
2022-08-25T13:58:44.517Z,31.28
2022-08-25T14:01:44.082Z,33.52
2022-08-25T14:04:39.927Z,33.29
2022-08-25T14:07:21.888Z,34.61
2022-08-25T14:10:01.175Z,34.59
2022-08-25T14:12:39.544Z,33.53
2022-08-25T14:15:28.590Z,33.42
2022-08-25T14:18:20.931Z,35.76
2022-08-25T14:24:55.069Z,39.71
2022-08-25T14:27:22.616Z,38.12
2022-08-25T14:29:52.785Z,38.67
2022-08-25T14:32:20.361Z,38.62
2022-08-25T14:34:47.742Z,37.36
2022-08-25T14:37:20.125Z,34.31
2022-08-25T14:39:52.815Z,32.80
2022-08-25T14:42:20.660Z,30.91
2022-08-25T14:44:52.565Z,30.23
2022-08-25T14:47:19.926Z,29.85
2022-08-25T14:49:49.119Z,29.35
2022-08-25T14:56:16.254Z,28.65
2022-08-25T14:58:51.371Z,28.35
2022-08-25T15:01:29.193Z,28.34
2022-08-25T15:04:06.881Z,28.11
2022-08-25T15:18:32.025Z,28.51
2022-08-25T15:25:10.189Z,27.99
2022-08-25T15:27:37.773Z,29.19
2022-08-25T15:30:07.080Z,29.98
2022-08-25T15:32:34.547Z,30.38
2022-08-25T15:39:52.178Z,31.94
2022-08-25T15:42:19.716Z,31.85
2022-08-25T15:44:53.338Z,31.95
2022-08-25T15:47:22.572Z,31.95
2022-08-25T15:53:49.803Z,31.97
2022-08-25T15:56:17.048Z,32.42
2022-08-25T15:59:08.481Z,33.47
2022-08-25T16:01:36.382Z,34.10
2022-08-25T16:04:05.201Z,33.69
2022-08-25T16:06:33.902Z,34.52
2022-08-25T16:09:23.633Z,34.76
2022-08-25T16:11:56.752Z,35.01
2022-08-25T16:14:27.642Z,34.87
2022-08-25T16:16:58.046Z,35.40
2022-08-25T16:19:29.736Z,35.59
2022-08-25T16:21:59.033Z,36.07
2022-08-25T16:24:27.853Z,36.71
2022-08-25T16:26:55.818Z,36.84
2022-08-25T16:33:33.836Z,37.98
2022-08-25T16:36:10.128Z,38.30
2022-08-25T16:38:40.687Z,38.35
2022-08-25T16:41:13.042Z,38.82
2022-08-25T16:43:42.591Z,38.94
2022-08-25T16:50:19.874Z,40.47
2022-08-25T16:52:47.721Z,40.16
2022-08-25T16:55:16.947Z,41.06
2022-08-25T16:57:48.772Z,41.15
2022-08-25T17:00:21.754Z,41.06
2022-08-25T17:07:36.168Z,40.81
2022-08-25T17:10:07.410Z,41.32
2022-08-25T17:12:40.469Z,41.45
2022-08-25T17:20:00.032Z,42.06
2022-08-25T17:26:40.696Z,42.47
2022-08-25T17:32:51.029Z,43.63
2022-08-25T17:35:26.494Z,44.46
2022-08-25T17:51:46.964Z,45.23
2022-08-25T17:54:14.973Z,43.65
2022-08-25T18:00:34.755Z,41.71
2022-08-25T18:03:03.472Z,41.75
2022-08-25T18:05:33.530Z,41.70
2022-08-25T18:08:40.658Z,41.85
2022-08-25T18:11:08.622Z,42.26
2022-08-25T18:17:40.547Z,44.59
2022-08-25T18:23:59.837Z,46.50
2022-08-25T18:26:30.829Z,47.28
2022-08-25T18:29:00.028Z,47.62
2022-08-25T18:35:49.717Z,49.18
2022-08-25T18:38:17.014Z,49.58
2022-08-25T18:40:45.298Z,49.51
2022-08-25T18:51:32.848Z,51.59
2022-08-25T18:54:01.490Z,51.72
2022-08-25T18:56:29.986Z,51.59
2022-08-25T18:58:58.252Z,51.69
2022-08-25T19:09:32.951Z,52.40
2022-08-25T19:12:01.490Z,51.82
2022-08-25T19:15:05.030Z,52.54
2022-08-25T19:17:37.312Z,52.50
2022-08-25T19:20:11.151Z,53.62
2022-08-25T19:22:41.937Z,53.50
2022-08-25T19:33:01.277Z,52.99
2022-08-25T19:35:47.210Z,53.11
2022-08-25T19:42:37.224Z,53.35
2022-08-25T19:45:08.608Z,53.37
2022-08-25T19:51:52.153Z,54.18
2022-08-25T19:54:29.343Z,53.17
2022-08-25T19:56:57.351Z,53.13
2022-08-25T19:59:40.446Z,53.66
2022-08-25T20:02:19.322Z,53.21
2022-08-25T20:04:50.374Z,53.31
2022-08-25T20:11:28.973Z,53.99
2022-08-25T20:14:00.467Z,54.31
2022-08-25T20:16:30.893Z,54.31
2022-08-25T20:22:51.173Z,53.80
2022-08-25T20:26:08.417Z,53.96
2022-08-25T20:32:36.287Z,54.35
2022-08-25T20:35:09.028Z,54.54
2022-08-25T20:37:37.853Z,54.57
2022-08-25T20:40:07.817Z,53.97
2022-08-25T20:42:35.193Z,54.18
2022-08-25T20:45:07.854Z,54.30
2022-08-25T20:47:35.111Z,54.55
2022-08-25T20:50:06.575Z,54.60
2022-08-25T20:56:33.874Z,55.07
2022-08-25T20:59:01.176Z,55.21
2022-08-25T21:01:29.383Z,55.11
2022-08-25T21:03:56.905Z,55.10
2022-08-25T21:06:24.355Z,54.78
2022-08-25T21:08:52.244Z,54.81
2022-08-25T21:12:11.921Z,54.76
2022-08-25T21:14:53.510Z,54.94
2022-08-25T21:17:20.671Z,54.89
2022-08-25T21:22:16.268Z,54.77
2022-08-25T21:24:43.565Z,54.85
2022-08-25T21:27:12.035Z,54.88
2022-08-25T21:29:44.568Z,54.94
2022-08-25T21:32:17.885Z,54.85
2022-08-25T21:34:45.843Z,54.82
2022-08-25T21:37:14.585Z,54.15
2022-08-25T21:39:41.812Z,54.27
2022-08-25T21:44:41.081Z,54.62
2022-08-25T21:47:08.340Z,54.65
2022-08-25T21:49:37.377Z,54.43
2022-08-25T21:52:05.674Z,54.58
2022-08-25T21:54:33.171Z,54.48
2022-08-25T21:57:05.000Z,54.67
2022-08-25T21:59:36.687Z,55.13
2022-08-25T22:02:08.764Z,54.74
2022-08-25T22:04:38.880Z,54.95
2022-08-25T22:07:08.185Z,54.93
2022-08-25T22:09:36.550Z,54.94
2022-08-25T22:12:05.524Z,55.04
2022-08-25T22:14:34.708Z,55.30
2022-08-25T22:17:02.482Z,55.35
2022-08-25T22:20:00.883Z,55.57
2022-08-25T22:22:28.127Z,55.52
2022-08-25T22:24:55.350Z,55.36
2022-08-25T22:31:23.672Z,55.71
2022-08-25T22:33:52.407Z,55.68
2022-08-25T22:36:35.914Z,55.66
2022-08-25T22:39:06.621Z,55.36
2022-08-25T22:41:35.740Z,55.65
2022-08-25T22:44:09.227Z,55.54
2022-08-25T22:46:36.784Z,55.62
2022-08-25T22:49:03.994Z,55.51
2022-08-25T22:52:09.442Z,55.47
2022-08-25T22:58:40.436Z,55.90
2022-08-25T23:01:17.650Z,56.18
2022-08-25T23:07:54.857Z,55.79
2022-08-25T23:10:22.178Z,55.62
2022-08-25T23:16:49.663Z,56.49
2022-08-25T23:19:18.188Z,56.56
2022-08-25T23:25:56.022Z,56.94
2022-08-25T23:29:17.497Z,56.41
2022-08-25T23:32:35.523Z,56.60
2022-08-25T23:39:59.399Z,56.70
2022-08-25T23:42:26.643Z,56.81
2022-08-25T23:49:06.477Z,56.35
2022-08-25T23:51:38.109Z,56.18
